createdAt,value
2018-04-14T00:00:12.376Z,78.50
2018-04-14T00:02:42.125Z,78.50
2018-04-14T00:05:11.049Z,78.50
2018-04-14T00:07:39.965Z,78.30
2018-04-14T00:10:09.690Z,78.60
2018-04-14T00:12:38.621Z,78.60
2018-04-14T00:15:07.570Z,78.50
2018-04-14T00:17:36.548Z,78.70
2018-04-14T00:20:06.250Z,78.50
2018-04-14T00:22:35.990Z,78.80
2018-04-14T00:25:04.907Z,78.70
2018-04-14T00:27:33.776Z,79.00
2018-04-14T00:30:02.713Z,79.20
2018-04-14T00:32:31.697Z,79.40
2018-04-14T00:35:00.590Z,79.80
2018-04-14T00:37:29.502Z,79.70
2018-04-14T00:39:59.269Z,79.60
2018-04-14T00:42:28.147Z,79.50
2018-04-14T00:44:57.074Z,79.50
2018-04-14T00:47:26.001Z,79.90
2018-04-14T00:49:54.908Z,79.90
2018-04-14T00:52:23.797Z,79.90
2018-04-14T00:54:52.723Z,79.80
2018-04-14T00:57:21.677Z,79.90
2018-04-14T00:59:50.610Z,79.80
2018-04-14T01:02:19.603Z,79.90
2018-04-14T01:04:48.546Z,80.10
2018-04-14T01:07:17.477Z,80.40
2018-04-14T01:09:46.431Z,81.20
2018-04-14T01:12:15.324Z,80.80
2018-04-14T01:14:44.217Z,81.00
2018-04-14T01:17:13.149Z,81.00
2018-04-14T01:19:42.085Z,81.00
2018-04-14T01:22:10.986Z,80.80
2018-04-14T01:24:39.937Z,80.60
2018-04-14T01:27:08.861Z,80.60
2018-04-14T01:29:38.601Z,80.30
2018-04-14T01:32:07.580Z,80.20
2018-04-14T01:34:36.533Z,80.70
2018-04-14T01:37:06.308Z,80.60
2018-04-14T01:39:35.223Z,80.60
2018-04-14T01:42:04.128Z,80.50
2018-04-14T01:44:33.055Z,80.50
2018-04-14T01:47:02.055Z,80.50
2018-04-14T01:49:31.033Z,80.40
2018-04-14T01:51:59.977Z,80.50
2018-04-14T01:54:28.925Z,81.10
2018-04-14T01:56:57.863Z,80.50
2018-04-14T01:59:26.817Z,80.30
2018-04-14T02:01:55.723Z,80.50
2018-04-14T02:04:24.638Z,80.50
2018-04-14T02:06:53.576Z,80.70
2018-04-14T02:09:22.476Z,80.70
2018-04-14T02:11:51.415Z,80.90
2018-04-14T02:14:20.305Z,81.30
2018-04-14T02:16:49.265Z,81.50
2018-04-14T02:19:18.239Z,81.60
2018-04-14T02:21:47.122Z,81.30
2018-04-14T02:24:16.107Z,81.00
2018-04-14T02:26:45.026Z,81.00
2018-04-14T02:29:13.974Z,81.20
2018-04-14T02:31:42.923Z,80.80
2018-04-14T02:34:11.843Z,80.70
2018-04-14T02:36:40.755Z,81.30
2018-04-14T02:39:10.470Z,80.70
2018-04-14T02:41:39.343Z,80.70
2018-04-14T02:44:09.022Z,80.50
2018-04-14T02:46:37.984Z,80.50
2018-04-14T02:49:12.661Z,80.60
2018-04-14T02:51:42.407Z,81.60
2018-04-14T02:54:11.389Z,81.60
2018-04-14T02:56:40.321Z,81.70
2018-04-14T02:59:09.226Z,81.90
2018-04-14T03:01:38.227Z,82.30
2018-04-14T03:04:07.128Z,82.20
2018-04-14T03:06:36.082Z,82.30
2018-04-14T03:09:05.898Z,81.90
2018-04-14T03:11:34.826Z,81.80
2018-04-14T03:14:03.744Z,81.30
2018-04-14T03:16:32.613Z,81.00
2018-04-14T03:19:02.259Z,81.50
2018-04-14T03:21:31.186Z,81.40
2018-04-14T03:24:00.052Z,82.00
2018-04-14T03:26:28.937Z,82.50
2018-04-14T03:28:57.901Z,83.10
2018-04-14T03:31:26.829Z,83.20
2018-04-14T03:33:55.723Z,83.40
2018-04-14T03:36:24.650Z,83.20
2018-04-14T03:38:54.308Z,83.80
2018-04-14T03:41:23.214Z,83.70
2018-04-14T03:43:52.119Z,83.40
2018-04-14T03:46:21.022Z,83.40
2018-04-14T03:48:49.926Z,83.30
2018-04-14T03:51:18.860Z,83.90
2018-04-14T03:53:47.755Z,83.90
2018-04-14T03:56:16.671Z,84.40
2018-04-14T03:58:45.637Z,84.00
2018-04-14T04:01:14.522Z,84.70
2018-04-14T04:03:43.486Z,84.10
2018-04-14T04:06:12.392Z,84.40
2018-04-14T04:08:41.323Z,84.80
2018-04-14T04:11:10.255Z,84.80
2018-04-14T04:13:39.944Z,84.30
2018-04-14T04:16:08.875Z,84.20
2018-04-14T04:18:55.613Z,84.20
2018-04-14T04:21:42.167Z,84.20
2018-04-14T04:24:30.617Z,83.80
2018-04-14T04:26:59.593Z,83.70
2018-04-14T04:29:29.353Z,83.50
2018-04-14T04:31:58.268Z,83.40
2018-04-14T04:34:27.190Z,83.20
2018-04-14T04:36:56.950Z,83.30
2018-04-14T04:39:25.913Z,83.20
2018-04-14T04:41:54.844Z,83.00
2018-04-14T04:44:23.756Z,82.70
2018-04-14T04:46:52.703Z,82.30
2018-04-14T04:49:21.613Z,81.80
2018-04-14T04:51:50.476Z,81.00
2018-04-14T04:54:19.478Z,77.80
2018-04-14T04:56:48.384Z,72.60
2018-04-14T04:59:17.316Z,68.70
2018-04-14T05:01:46.264Z,65.80
2018-04-14T05:04:15.245Z,63.50
2018-04-14T05:06:44.164Z,60.50
2018-04-14T05:09:13.133Z,59.30
2018-04-14T05:11:42.057Z,57.80
2018-04-14T05:14:10.953Z,56.40
2018-04-14T05:16:43.417Z,56.70
2018-04-14T05:19:12.445Z,56.10
2018-04-14T05:21:41.319Z,54.70
2018-04-14T05:24:11.102Z,52.20
2018-04-14T05:26:39.966Z,51.70
2018-04-14T05:29:08.863Z,51.20
2018-04-14T05:31:37.850Z,53.60
2018-04-14T05:34:06.768Z,55.40
2018-04-14T05:36:35.702Z,52.70
2018-04-14T05:39:06.352Z,51.00
2018-04-14T05:41:35.257Z,48.80
2018-04-14T05:44:04.157Z,46.70
2018-04-14T05:46:33.098Z,45.50
2018-04-14T05:49:02.728Z,44.20
2018-04-14T05:51:31.651Z,44.10
2018-04-14T05:54:00.571Z,44.40
2018-04-14T05:56:29.494Z,43.10
2018-04-14T05:58:58.397Z,43.10
2018-04-14T06:01:27.377Z,42.60
2018-04-14T06:03:56.326Z,41.80
2018-04-14T06:06:25.279Z,39.80
2018-04-14T06:08:54.248Z,38.70
2018-04-14T06:11:23.139Z,38.80
2018-04-14T06:13:52.011Z,39.20
2018-04-14T06:16:21.745Z,38.30
2018-04-14T06:18:50.640Z,38.20
2018-04-14T06:21:19.528Z,36.50
2018-04-14T06:23:48.448Z,35.40
2018-04-14T06:26:17.395Z,34.40
2018-04-14T06:28:46.309Z,33.50
2018-04-14T06:31:15.286Z,32.30
2018-04-14T06:33:44.227Z,31.20
2018-04-14T06:36:13.127Z,30.50
2018-04-14T06:38:42.096Z,30.70
2018-04-14T06:41:11.002Z,30.70
2018-04-14T06:43:39.918Z,31.00
2018-04-14T06:46:09.612Z,31.00
2018-04-14T06:48:39.548Z,30.90
2018-04-14T06:51:09.271Z,30.60
2018-04-14T06:53:38.915Z,30.50
2018-04-14T06:56:07.805Z,31.10
2018-04-14T06:58:36.716Z,31.10
2018-04-14T07:01:05.629Z,30.40
2018-04-14T07:03:35.349Z,31.00
2018-04-14T07:06:04.292Z,30.90
2018-04-14T07:08:33.290Z,31.10
2018-04-14T07:11:02.254Z,30.00
2018-04-14T07:13:31.301Z,29.90
2018-04-14T07:16:00.231Z,28.60
2018-04-14T07:18:29.157Z,27.90
2018-04-14T07:20:58.071Z,29.10
2018-04-14T07:23:26.973Z,27.70
2018-04-14T07:25:56.408Z,26.60
2018-04-14T07:28:25.400Z,26.40
2018-04-14T07:30:54.347Z,25.90
2018-04-14T07:33:23.311Z,25.40
2018-04-14T07:35:52.284Z,26.20
2018-04-14T07:38:21.257Z,26.10
2018-04-14T07:40:50.156Z,25.70
2018-04-14T07:43:19.100Z,26.30
2018-04-14T07:45:48.045Z,26.90
2018-04-14T07:48:17.006Z,27.20
2018-04-14T07:50:46.760Z,27.90
2018-04-14T07:53:15.665Z,27.80
2018-04-14T07:55:44.600Z,27.70
2018-04-14T07:58:14.359Z,28.80
2018-04-14T08:00:43.318Z,28.80
2018-04-14T08:03:12.280Z,28.00
2018-04-14T08:05:41.292Z,27.50
2018-04-14T08:08:11.031Z,26.30
2018-04-14T08:10:40.116Z,26.30
2018-04-14T08:13:09.109Z,26.60
2018-04-14T08:15:38.102Z,26.90
2018-04-14T08:18:07.090Z,27.80
2018-04-14T08:20:36.068Z,27.50
2018-04-14T08:23:05.793Z,27.80
2018-04-14T08:25:34.744Z,27.80
2018-04-14T08:28:03.683Z,27.20
2018-04-14T08:30:32.621Z,26.50
2018-04-14T08:33:01.586Z,26.20
2018-04-14T08:35:30.649Z,27.00
2018-04-14T08:37:59.651Z,26.60
2018-04-14T08:40:28.620Z,26.90
2018-04-14T08:42:57.571Z,25.90
2018-04-14T08:45:26.503Z,26.40
2018-04-14T08:47:55.438Z,26.40
2018-04-14T08:50:24.410Z,26.50
2018-04-14T08:52:53.343Z,25.60
2018-04-14T08:55:22.358Z,25.10
2018-04-14T08:57:52.083Z,24.10
2018-04-14T09:00:21.087Z,24.10
2018-04-14T09:02:50.052Z,24.90
2018-04-14T09:05:19.797Z,24.60
2018-04-14T09:07:48.799Z,24.50
2018-04-14T09:10:17.712Z,23.60
2018-04-14T09:12:46.790Z,24.40
2018-04-14T09:15:16.588Z,24.90
2018-04-14T09:17:45.510Z,24.90
2018-04-14T09:20:14.527Z,25.30
2018-04-14T09:22:43.509Z,24.40
2018-04-14T09:25:12.454Z,25.60
2018-04-14T09:27:41.443Z,25.00
2018-04-14T09:30:10.441Z,24.90
2018-04-14T09:32:39.559Z,25.80
2018-04-14T09:35:08.490Z,25.30
2018-04-14T09:37:37.440Z,25.20
2018-04-14T09:40:06.607Z,25.30
2018-04-14T09:42:36.445Z,24.70
2018-04-14T09:45:05.427Z,24.20
2018-04-14T09:47:34.345Z,25.20
2018-04-14T09:50:03.265Z,24.60
2018-04-14T09:52:32.220Z,25.40
2018-04-14T09:55:01.140Z,25.50
2018-04-14T09:57:30.053Z,25.70
2018-04-14T09:59:59.700Z,23.90
2018-04-14T10:02:34.958Z,23.80
2018-04-14T10:05:03.873Z,23.80
2018-04-14T10:07:32.815Z,24.30
2018-04-14T10:10:01.705Z,26.90
2018-04-14T10:12:30.593Z,26.80
2018-04-14T10:14:59.621Z,27.40
2018-04-14T10:17:28.578Z,26.70
2018-04-14T10:19:57.491Z,26.80
2018-04-14T10:22:26.448Z,27.10
2018-04-14T10:24:55.344Z,25.50
2018-04-14T10:27:24.279Z,26.30
2018-04-14T10:29:53.159Z,26.90
2018-04-14T10:32:22.172Z,24.00
2018-04-14T10:34:51.063Z,25.40
2018-04-14T10:37:19.941Z,23.80
2018-04-14T10:39:48.960Z,23.80
2018-04-14T10:42:17.854Z,23.30
2018-04-14T10:44:47.496Z,25.10
2018-04-14T10:47:16.463Z,25.00
2018-04-14T10:49:45.398Z,20.20
2018-04-14T10:52:14.316Z,20.70
2018-04-14T10:54:43.350Z,21.20
2018-04-14T10:57:12.250Z,19.90
2018-04-14T10:59:57.981Z,23.60
2018-04-14T11:02:28.801Z,23.50
2018-04-14T11:04:57.737Z,23.40
2018-04-14T11:07:27.524Z,22.80
2018-04-14T11:09:56.449Z,22.70
2018-04-14T11:12:25.360Z,22.80
2018-04-14T11:14:54.273Z,20.60
2018-04-14T11:17:23.246Z,23.50
2018-04-14T11:19:52.174Z,23.10
2018-04-14T11:22:21.116Z,22.40
2018-04-14T11:27:25.954Z,20.80
2018-04-14T11:29:54.915Z,20.60
2018-04-14T11:32:23.845Z,22.00
2018-04-14T11:34:52.766Z,19.60
2018-04-14T11:37:21.745Z,20.70
2018-04-14T11:39:50.675Z,20.40
2018-04-14T11:42:19.540Z,21.10
2018-04-14T11:44:48.505Z,21.20
2018-04-14T11:47:17.391Z,18.60
2018-04-14T11:49:46.306Z,21.10
2018-04-14T11:52:15.261Z,22.10
2018-04-14T11:54:44.883Z,20.70
2018-04-14T11:57:13.860Z,20.70
2018-04-14T11:59:42.750Z,21.10
2018-04-14T12:02:11.669Z,23.00
2018-04-14T12:04:40.611Z,23.20
2018-04-14T12:07:10.361Z,21.40
2018-04-14T12:09:39.284Z,21.30
2018-04-14T12:12:08.218Z,21.80
2018-04-14T12:14:37.189Z,21.90
2018-04-14T12:17:06.096Z,22.00
2018-04-14T12:19:35.814Z,22.30
2018-04-14T12:22:04.760Z,22.30
2018-04-14T12:24:33.696Z,22.70
2018-04-14T12:27:03.339Z,22.70
2018-04-14T12:29:32.306Z,22.60
2018-04-14T12:32:01.237Z,22.20
2018-04-14T12:34:30.190Z,20.70
2018-04-14T12:36:59.161Z,23.10
2018-04-14T12:39:28.081Z,23.50
2018-04-14T12:41:57.017Z,23.40
2018-04-14T12:44:25.985Z,23.60
2018-04-14T12:46:54.932Z,23.10
2018-04-14T12:49:24.588Z,24.90
2018-04-14T12:51:53.500Z,24.80
2018-04-14T12:54:22.400Z,24.70
2018-04-14T12:56:51.292Z,22.20
2018-04-14T12:59:20.253Z,22.90
2018-04-14T13:01:49.190Z,23.90
2018-04-14T13:04:18.876Z,21.90
2018-04-14T13:06:47.792Z,21.80
2018-04-14T13:09:17.485Z,22.30
2018-04-14T13:11:46.415Z,22.30
2018-04-14T13:14:16.115Z,21.70
2018-04-14T13:16:45.032Z,21.70
2018-04-14T13:19:13.956Z,24.00
2018-04-14T13:21:42.972Z,22.20
2018-04-14T13:24:12.658Z,21.80
2018-04-14T13:26:41.559Z,21.60
2018-04-14T13:29:10.513Z,21.10
2018-04-14T13:31:39.470Z,23.00
2018-04-14T13:34:08.421Z,22.40
2018-04-14T13:36:37.352Z,21.90
2018-04-14T13:39:06.262Z,23.90
2018-04-14T13:41:35.156Z,23.00
2018-04-14T13:44:04.036Z,24.70
2018-04-14T13:46:32.956Z,24.50
2018-04-14T13:49:01.882Z,24.90
2018-04-14T13:51:31.746Z,24.60
2018-04-14T13:54:00.627Z,24.00
2018-04-14T13:56:29.522Z,23.10
2018-04-14T13:58:59.229Z,23.90
2018-04-14T14:01:28.205Z,23.90
2018-04-14T14:03:57.130Z,23.00
2018-04-14T14:06:26.114Z,23.70
2018-04-14T14:08:54.996Z,24.60
2018-04-14T14:11:24.695Z,24.30
2018-04-14T14:13:53.726Z,23.50
2018-04-14T14:16:22.674Z,24.20
2018-04-14T14:18:51.642Z,25.50
2018-04-14T14:21:21.388Z,22.60
2018-04-14T14:23:50.363Z,22.60
2018-04-14T14:26:19.281Z,24.90
2018-04-14T14:28:48.313Z,24.70
2018-04-14T14:31:17.245Z,23.60
2018-04-14T14:33:46.186Z,23.60
2018-04-14T14:36:15.096Z,22.50
2018-04-14T14:38:43.971Z,24.30
2018-04-14T14:41:12.865Z,23.90
2018-04-14T14:43:41.810Z,24.00
2018-04-14T14:46:10.709Z,24.50
2018-04-14T14:48:39.690Z,24.60
2018-04-14T14:51:09.405Z,24.70
2018-04-14T14:53:38.292Z,24.70
2018-04-14T14:56:07.981Z,25.50
2018-04-14T14:58:36.954Z,25.50
2018-04-14T15:01:06.615Z,26.60
2018-04-14T15:03:35.504Z,26.60
2018-04-14T15:06:04.436Z,26.40
2018-04-14T15:08:33.373Z,26.90
2018-04-14T15:11:02.305Z,27.50
2018-04-14T15:13:31.233Z,27.90
2018-04-14T15:16:00.892Z,29.20
2018-04-14T15:18:29.772Z,29.20
2018-04-14T15:20:58.687Z,28.70
2018-04-14T15:23:27.610Z,28.50
2018-04-14T15:25:56.564Z,28.60
2018-04-14T15:28:25.511Z,29.40
2018-04-14T15:30:54.461Z,30.20
2018-04-14T15:33:23.388Z,29.90
2018-04-14T15:35:52.358Z,29.60
2018-04-14T15:38:22.060Z,29.80
2018-04-14T15:40:51.762Z,29.50
2018-04-14T15:43:20.701Z,29.50
2018-04-14T15:45:49.631Z,30.30
2018-04-14T15:48:18.553Z,31.00
2018-04-14T15:50:48.244Z,30.80
2018-04-14T15:53:17.159Z,30.70
2018-04-14T15:55:46.808Z,31.90
2018-04-14T15:58:15.768Z,31.90
2018-04-14T16:00:44.715Z,31.90
2018-04-14T16:03:13.706Z,31.60
2018-04-14T16:05:43.423Z,31.90
2018-04-14T16:08:12.299Z,31.90
2018-04-14T16:10:41.232Z,31.50
2018-04-14T16:13:10.977Z,31.90
2018-04-14T16:15:39.867Z,31.90
2018-04-14T16:18:08.767Z,32.00
2018-04-14T16:20:37.741Z,32.40
2018-04-14T16:23:06.684Z,32.20
2018-04-14T16:25:36.443Z,32.80
2018-04-14T16:28:06.280Z,33.60
2018-04-14T16:30:35.196Z,33.00
2018-04-14T16:33:34.407Z,33.60
2018-04-14T16:39:14.064Z,33.80
2018-04-14T16:41:43.002Z,33.90
2018-04-14T16:44:11.913Z,34.30
2018-04-14T16:46:40.837Z,35.00
2018-04-14T16:49:09.783Z,34.50
2018-04-14T16:51:38.736Z,34.60
2018-04-14T16:54:08.432Z,35.20
2018-04-14T16:56:38.141Z,36.10
2018-04-14T16:59:07.836Z,35.50
2018-04-14T17:01:36.790Z,35.50
2018-04-14T17:04:05.684Z,36.50
2018-04-14T17:06:34.640Z,35.30
2018-04-14T17:09:04.415Z,35.70
2018-04-14T17:11:33.401Z,35.70
2018-04-14T17:14:02.350Z,36.30
2018-04-14T17:16:31.312Z,36.10
2018-04-14T17:19:00.984Z,38.00
2018-04-14T17:21:29.897Z,37.20
2018-04-14T17:23:58.844Z,37.10
2018-04-14T17:26:27.760Z,37.70
2018-04-14T17:28:56.820Z,38.70
2018-04-14T17:31:25.776Z,38.90
2018-04-14T17:33:55.515Z,39.40
2018-04-14T17:36:24.479Z,39.30
2018-04-14T17:38:54.212Z,39.30
2018-04-14T17:41:23.932Z,39.20
2018-04-14T17:43:52.836Z,39.10
2018-04-14T17:46:25.681Z,39.30
2018-04-14T17:48:55.357Z,38.90
2018-04-14T17:51:24.348Z,38.80
2018-04-14T17:53:53.294Z,38.90
2018-04-14T17:56:22.229Z,38.80
2018-04-14T17:58:51.166Z,38.00
2018-04-14T18:01:20.912Z,38.00
2018-04-14T18:03:49.816Z,37.90
2018-04-14T18:06:18.783Z,38.60
2018-04-14T18:08:47.770Z,38.80
2018-04-14T18:11:16.700Z,37.70
2018-04-14T18:13:45.718Z,38.30
2018-04-14T18:16:14.619Z,37.60
2018-04-14T18:18:44.314Z,39.40
2018-04-14T18:21:13.281Z,39.40
2018-04-14T18:23:42.781Z,40.90
2018-04-14T18:26:11.703Z,42.00
2018-04-14T18:28:41.677Z,43.30
2018-04-14T18:31:10.865Z,42.80
2018-04-14T18:36:24.225Z,43.00
2018-04-14T18:38:53.222Z,43.00
2018-04-14T18:41:22.173Z,42.50
2018-04-14T18:43:51.895Z,42.80
2018-04-14T18:46:20.864Z,42.90
2018-04-14T18:48:50.565Z,45.50
2018-04-14T18:51:20.555Z,43.70
2018-04-14T18:53:49.294Z,43.70
2018-04-14T18:56:18.286Z,44.70
2018-04-14T18:58:47.258Z,44.20
2018-04-14T19:01:16.970Z,45.00
2018-04-14T19:03:46.699Z,45.40
2018-04-14T19:06:15.629Z,45.40
2018-04-14T19:08:44.619Z,45.50
2018-04-14T19:11:13.567Z,45.70
2018-04-14T19:13:42.492Z,46.40
2018-04-14T19:16:11.477Z,46.90
2018-04-14T19:18:40.470Z,46.90
2018-04-14T19:21:09.471Z,47.50
2018-04-14T19:23:38.471Z,47.90
2018-04-14T19:26:07.543Z,49.00
2018-04-14T19:28:37.707Z,49.90
2018-04-14T19:31:07.438Z,51.10
2018-04-14T19:33:43.354Z,51.30
2018-04-14T19:36:12.331Z,51.30
2018-04-14T19:38:52.017Z,52.30
2018-04-14T19:41:34.093Z,52.70
2018-04-14T19:44:05.297Z,53.50
2018-04-14T19:46:37.100Z,53.70
2018-04-14T19:49:06.085Z,53.60
2018-04-14T19:51:34.996Z,53.90
2018-04-14T19:54:03.915Z,54.20
2018-04-14T19:56:34.452Z,53.80
2018-04-14T19:59:03.372Z,53.60
2018-04-14T20:01:32.272Z,53.70
2018-04-14T20:04:01.247Z,53.20
2018-04-14T20:06:31.087Z,53.40
2018-04-14T20:09:00.039Z,53.50
2018-04-14T20:11:29.054Z,53.60
2018-04-14T20:13:58.018Z,53.30
2018-04-14T20:16:26.955Z,53.00
2018-04-14T20:18:55.916Z,53.30
2018-04-14T20:21:24.858Z,53.20
2018-04-14T20:23:54.526Z,54.00
2018-04-14T20:26:23.506Z,53.60
2018-04-14T20:28:52.404Z,53.40
2018-04-14T20:31:21.942Z,54.00
2018-04-14T20:33:59.524Z,54.50
2018-04-14T20:36:28.498Z,55.00
2018-04-14T20:38:57.380Z,55.40
2018-04-14T20:41:26.372Z,55.80
2018-04-14T20:43:55.299Z,56.10
2018-04-14T20:46:24.237Z,56.30
2018-04-14T20:48:53.231Z,56.50
2018-04-14T20:51:22.115Z,56.10
2018-04-14T20:53:51.047Z,55.80
2018-04-14T20:56:20.020Z,56.00
2018-04-14T20:58:48.933Z,56.30
2018-04-14T21:01:17.920Z,56.30
2018-04-14T21:03:46.844Z,56.60
2018-04-14T21:06:15.747Z,56.70
2018-04-14T21:08:45.416Z,56.50
2018-04-14T21:11:14.371Z,56.50
2018-04-14T21:13:43.277Z,56.70
2018-04-14T21:16:12.206Z,56.70
2018-04-14T21:18:48.729Z,56.60
2018-04-14T21:21:17.712Z,56.80
2018-04-14T21:23:46.649Z,57.10
2018-04-14T21:26:15.633Z,57.00
2018-04-14T21:28:44.745Z,57.50
2018-04-14T21:31:13.652Z,57.60
2018-04-14T21:33:42.617Z,57.50
2018-04-14T21:36:11.682Z,57.50
2018-04-14T21:38:40.614Z,57.40
2018-04-14T21:41:09.595Z,57.50
2018-04-14T21:43:38.488Z,57.00
2018-04-14T21:46:07.411Z,57.30
2018-04-14T21:48:36.284Z,57.40
2018-04-14T21:51:05.230Z,57.30
2018-04-14T21:53:34.181Z,57.20
2018-04-14T21:56:03.865Z,57.50
2018-04-14T21:58:32.834Z,57.40
2018-04-14T22:01:01.745Z,57.80
2018-04-14T22:03:30.706Z,57.90
2018-04-14T22:05:59.704Z,57.80
2018-04-14T22:08:28.600Z,58.00
2018-04-14T22:10:57.527Z,58.20
2018-04-14T22:13:26.490Z,58.50
2018-04-14T22:15:55.429Z,58.70
2018-04-14T22:18:25.140Z,59.30
2018-04-14T22:20:54.829Z,59.70
2018-04-14T22:23:23.776Z,59.60
2018-04-14T22:25:52.678Z,59.40
2018-04-14T22:28:21.643Z,59.60
2018-04-14T22:30:50.581Z,59.40
2018-04-14T22:33:19.526Z,59.50
2018-04-14T22:35:48.464Z,59.40
2018-04-14T22:38:17.408Z,60.00
2018-04-14T22:40:46.356Z,60.00
2018-04-14T22:43:15.318Z,60.10
2018-04-14T22:45:44.267Z,60.40
2018-04-14T22:48:13.181Z,60.30
2018-04-14T22:50:42.158Z,60.20
2018-04-14T22:53:11.062Z,60.40
2018-04-14T22:55:39.993Z,60.60
2018-04-14T22:58:08.959Z,60.30
2018-04-14T23:00:37.897Z,60.30
2018-04-14T23:03:06.867Z,60.20
2018-04-14T23:05:35.806Z,60.30
2018-04-14T23:08:04.700Z,60.30
2018-04-14T23:10:33.622Z,60.40
2018-04-14T23:13:02.598Z,60.40
2018-04-14T23:15:31.532Z,60.50
2018-04-14T23:18:00.454Z,61.20
2018-04-14T23:20:29.367Z,61.80
2018-04-14T23:22:58.303Z,61.30
2018-04-14T23:25:27.245Z,61.30
2018-04-14T23:27:56.155Z,61.70
2018-04-14T23:30:25.151Z,61.80
2018-04-14T23:32:54.044Z,61.20
2018-04-14T23:35:22.996Z,61.30
2018-04-14T23:37:51.908Z,61.50
2018-04-14T23:40:21.676Z,61.70
2018-04-14T23:42:51.551Z,62.70
2018-04-14T23:45:20.436Z,62.70
2018-04-14T23:47:49.342Z,62.90
2018-04-14T23:50:18.277Z,62.70
2018-04-14T23:52:47.174Z,63.80
2018-04-14T23:55:16.104Z,65.00
2018-04-14T23:57:45.084Z,65.30
